sensor_id;sensor_type;location;lat;lon;timestamp;pressure;altitude;pressure_sealevel;temperature;humidity
10796;BME280;5450;42.994;23.372;2022-09-06T00:01:43;97070.88;;;14.95;100.00
10796;BME280;5450;42.994;23.372;2022-09-06T00:04:10;97065.59;;;14.95;100.00
10796;BME280;5450;42.994;23.372;2022-09-06T00:06:37;97067.59;;;14.93;100.00
10796;BME280;5450;42.994;23.372;2022-09-06T00:09:04;97067.94;;;14.90;100.00
10796;BME280;5450;42.994;23.372;2022-09-06T00:11:31;97067.28;;;14.88;100.00
10796;BME280;5450;42.994;23.372;2022-09-06T00:13:58;97067.94;;;14.90;100.00
10796;BME280;5450;42.994;23.372;2022-09-06T00:16:27;97039.66;;;14.68;100.00
10796;BME280;5450;42.994;23.372;2022-09-06T00:18:54;96968.84;;;14.17;100.00
10796;BME280;5450;42.994;23.372;2022-09-06T00:21:23;96984.78;;;14.01;100.00
10796;BME280;5450;42.994;23.372;2022-09-06T00:23:51;96987.66;;;14.22;100.00
10796;BME280;5450;42.994;23.372;2022-09-06T00:26:19;96981.22;;;13.86;100.00
10796;BME280;5450;42.994;23.372;2022-09-06T00:28:46;97071.03;;;14.71;100.00
10796;BME280;5450;42.994;23.372;2022-09-06T00:31:15;96972.84;;;14.13;100.00
10796;BME280;5450;42.994;23.372;2022-09-06T00:33:44;97071.44;;;14.60;100.00
10796;BME280;5450;42.994;23.372;2022-09-06T00:36:11;97066.84;;;14.54;100.00
10796;BME280;5450;42.994;23.372;2022-09-06T00:38:39;97059.97;;;14.37;100.00
10796;BME280;5450;42.994;23.372;2022-09-06T00:41:08;97067.16;;;14.51;100.00
10796;BME280;5450;42.994;23.372;2022-09-06T00:43:36;97010.81;;;14.20;100.00
10796;BME280;5450;42.994;23.372;2022-09-06T00:46:04;97064.53;;;14.51;100.00
10796;BME280;5450;42.994;23.372;2022-09-06T00:48:34;96990.56;;;14.04;100.00
10796;BME280;5450;42.994;23.372;2022-09-06T00:51:07;97061.75;;;14.44;100.00
10796;BME280;5450;42.994;23.372;2022-09-06T00:53:36;97055.34;;;14.39;100.00
10796;BME280;5450;42.994;23.372;2022-09-06T00:56:04;97054.06;;;14.27;100.00
10796;BME280;5450;42.994;23.372;2022-09-06T00:58:31;97055.69;;;14.28;100.00
10796;BME280;5450;42.994;23.372;2022-09-06T01:00:58;97050.09;;;14.31;100.00
10796;BME280;5450;42.994;23.372;2022-09-06T01:03:26;97052.41;;;14.26;100.00
10796;BME280;5450;42.994;23.372;2022-09-06T01:06:13;97054.38;;;14.24;100.00
10796;BME280;5450;42.994;23.372;2022-09-06T01:08:54;97054.06;;;14.19;100.00
10796;BME280;5450;42.994;23.372;2022-09-06T01:11:39;97058.72;;;14.17;100.00
10796;BME280;5450;42.994;23.372;2022-09-06T01:14:14;97055.78;;;14.12;100.00
10796;BME280;5450;42.994;23.372;2022-09-06T01:16:51;97054.44;;;14.16;100.00
10796;BME280;5450;42.994;23.372;2022-09-06T01:25:37;97031.38;;;13.94;100.00
10796;BME280;5450;42.994;23.372;2022-09-06T01:28:33;97051.16;;;14.06;100.00
10796;BME280;5450;42.994;23.372;2022-09-06T01:31:15;97048.50;;;14.06;100.00
10796;BME280;5450;42.994;23.372;2022-09-06T01:33:49;97063.72;;;14.04;100.00
10796;BME280;5450;42.994;23.372;2022-09-06T01:36:21;97037.97;;;13.98;100.00
10796;BME280;5450;42.994;23.372;2022-09-06T01:38:50;97015.53;;;13.94;100.00
10796;BME280;5450;42.994;23.372;2022-09-06T01:41:17;97043.88;;;14.08;100.00
10796;BME280;5450;42.994;23.372;2022-09-06T01:43:47;97016.19;;;13.96;100.00
10796;BME280;5450;42.994;23.372;2022-09-06T01:46:21;97037.28;;;14.04;100.00
10796;BME280;5450;42.994;23.372;2022-09-06T01:49:13;97034.34;;;13.99;100.00
10796;BME280;5450;42.994;23.372;2022-09-06T01:51:55;96995.81;;;13.65;100.00
10796;BME280;5450;42.994;23.372;2022-09-06T01:54:39;97038.31;;;13.95;100.00
10796;BME280;5450;42.994;23.372;2022-09-06T01:57:22;97034.38;;;13.83;100.00
10796;BME280;5450;42.994;23.372;2022-09-06T02:00:04;97028.78;;;13.86;100.00
10796;BME280;5450;42.994;23.372;2022-09-06T02:02:41;97019.84;;;13.87;100.00
10796;BME280;5450;42.994;23.372;2022-09-06T02:05:20;97028.13;;;13.76;100.00
10796;BME280;5450;42.994;23.372;2022-09-06T02:07:51;97022.53;;;13.71;100.00
10796;BME280;5450;42.994;23.372;2022-09-06T02:10:25;97029.47;;;13.72;100.00
10796;BME280;5450;42.994;23.372;2022-09-06T02:12:57;97026.19;;;13.61;100.00
10796;BME280;5450;42.994;23.372;2022-09-06T02:15:30;97021.38;;;13.65;100.00
10796;BME280;5450;42.994;23.372;2022-09-06T02:18:01;97028.47;;;13.64;100.00
10796;BME280;5450;42.994;23.372;2022-09-06T02:20:31;96998.81;;;13.54;100.00
10796;BME280;5450;42.994;23.372;2022-09-06T02:23:03;97024.38;;;13.62;100.00
10796;BME280;5450;42.994;23.372;2022-09-06T02:25:36;97020.22;;;13.67;100.00
10796;BME280;5450;42.994;23.372;2022-09-06T02:28:04;96934.88;;;13.04;100.00
10796;BME280;5450;42.994;23.372;2022-09-06T02:30:37;96987.47;;;13.30;100.00
10796;BME280;5450;42.994;23.372;2022-09-06T02:33:09;97023.22;;;13.56;100.00
10796;BME280;5450;42.994;23.372;2022-09-06T02:35:41;97035.13;;;13.52;100.00
10796;BME280;5450;42.994;23.372;2022-09-06T02:38:09;96985.66;;;13.30;100.00
10796;BME280;5450;42.994;23.372;2022-09-06T02:40:37;97029.66;;;13.54;100.00
10796;BME280;5450;42.994;23.372;2022-09-06T02:43:04;97042.41;;;13.42;100.00
10796;BME280;5450;42.994;23.372;2022-09-06T02:45:31;97023.91;;;13.50;100.00
10796;BME280;5450;42.994;23.372;2022-09-06T02:48:00;96995.25;;;13.07;100.00
10796;BME280;5450;42.994;23.372;2022-09-06T02:50:27;97024.88;;;13.57;100.00
10796;BME280;5450;42.994;23.372;2022-09-06T02:53:05;97028.84;;;13.61;100.00
10796;BME280;5450;42.994;23.372;2022-09-06T02:55:34;96993.09;;;13.27;100.00
10796;BME280;5450;42.994;23.372;2022-09-06T02:58:01;97034.81;;;13.39;100.00
10796;BME280;5450;42.994;23.372;2022-09-06T03:00:28;97011.41;;;13.20;100.00
10796;BME280;5450;42.994;23.372;2022-09-06T03:02:56;97034.47;;;13.34;100.00
10796;BME280;5450;42.994;23.372;2022-09-06T03:05:26;97031.03;;;13.26;100.00
10796;BME280;5450;42.994;23.372;2022-09-06T03:07:54;97037.31;;;13.25;100.00
10796;BME280;5450;42.994;23.372;2022-09-06T03:10:21;97017.50;;;13.05;100.00
10796;BME280;5450;42.994;23.372;2022-09-06T03:12:49;97036.94;;;13.04;100.00
10796;BME280;5450;42.994;23.372;2022-09-06T03:15:16;97032.00;;;13.01;100.00
10796;BME280;5450;42.994;23.372;2022-09-06T03:17:43;96937.84;;;12.37;100.00
10796;BME280;5450;42.994;23.372;2022-09-06T03:20:11;97038.59;;;12.97;100.00
10796;BME280;5450;42.994;23.372;2022-09-06T03:22:40;96953.38;;;12.56;100.00
10796;BME280;5450;42.994;23.372;2022-09-06T03:25:08;96994.56;;;12.73;100.00
10796;BME280;5450;42.994;23.372;2022-09-06T03:27:35;97044.53;;;12.99;100.00
10796;BME280;5450;42.994;23.372;2022-09-06T03:30:04;97046.66;;;12.71;100.00
10796;BME280;5450;42.994;23.372;2022-09-06T03:32:31;97039.56;;;12.79;100.00
10796;BME280;5450;42.994;23.372;2022-09-06T03:34:58;97035.78;;;12.82;100.00
10796;BME280;5450;42.994;23.372;2022-09-06T03:37:25;96963.53;;;12.27;100.00
10796;BME280;5450;42.994;23.372;2022-09-06T03:39:54;97040.41;;;12.88;100.00
10796;BME280;5450;42.994;23.372;2022-09-06T03:42:21;97046.00;;;12.93;100.00
10796;BME280;5450;42.994;23.372;2022-09-06T03:44:51;97051.91;;;12.95;100.00
10796;BME280;5450;42.994;23.372;2022-09-06T03:47:17;97005.91;;;12.65;100.00
10796;BME280;5450;42.994;23.372;2022-09-06T03:49:45;96959.22;;;12.17;100.00
10796;BME280;5450;42.994;23.372;2022-09-06T03:52:12;97051.25;;;12.85;100.00
10796;BME280;5450;42.994;23.372;2022-09-06T03:54:39;97024.19;;;12.51;100.00
10796;BME280;5450;42.994;23.372;2022-09-06T03:57:07;97054.88;;;12.76;100.00
10796;BME280;5450;42.994;23.372;2022-09-06T03:59:35;97056.53;;;12.77;100.00
10796;BME280;5450;42.994;23.372;2022-09-06T04:02:02;96967.78;;;12.19;100.00
10796;BME280;5450;42.994;23.372;2022-09-06T04:04:30;97052.22;;;12.76;100.00
10796;BME280;5450;42.994;23.372;2022-09-06T04:06:58;97007.06;;;12.47;100.00
10796;BME280;5450;42.994;23.372;2022-09-06T04:09:24;97043.00;;;12.72;100.00
10796;BME280;5450;42.994;23.372;2022-09-06T04:11:51;97054.56;;;12.79;100.00
10796;BME280;5450;42.994;23.372;2022-09-06T04:14:20;97015.97;;;12.62;100.00
10796;BME280;5450;42.994;23.372;2022-09-06T04:16:47;97057.38;;;12.77;100.00
10796;BME280;5450;42.994;23.372;2022-09-06T04:19:14;97057.50;;;12.76;100.00
10796;BME280;5450;42.994;23.372;2022-09-06T04:21:41;97062.78;;;12.76;100.00
10796;BME280;5450;42.994;23.372;2022-09-06T04:24:08;97062.63;;;12.77;100.00
10796;BME280;5450;42.994;23.372;2022-09-06T04:26:35;97049.94;;;12.73;100.00
10796;BME280;5450;42.994;23.372;2022-09-06T04:29:02;97053.91;;;12.77;100.00
10796;BME280;5450;42.994;23.372;2022-09-06T04:31:30;97020.53;;;12.44;100.00
10796;BME280;5450;42.994;23.372;2022-09-06T04:33:57;97053.06;;;12.68;100.00
10796;BME280;5450;42.994;23.372;2022-09-06T04:36:24;97077.44;;;12.70;100.00
10796;BME280;5450;42.994;23.372;2022-09-06T04:38:51;97051.56;;;12.74;100.00
10796;BME280;5450;42.994;23.372;2022-09-06T04:41:19;97046.97;;;12.76;100.00
10796;BME280;5450;42.994;23.372;2022-09-06T04:43:46;97046.97;;;12.76;100.00
10796;BME280;5450;42.994;23.372;2022-09-06T04:46:19;97041.00;;;12.58;100.00
10796;BME280;5450;42.994;23.372;2022-09-06T04:48:52;97048.28;;;12.80;100.00
10796;BME280;5450;42.994;23.372;2022-09-06T04:51:20;97011.50;;;12.46;100.00
10796;BME280;5450;42.994;23.372;2022-09-06T04:53:48;97044.63;;;12.65;100.00
10796;BME280;5450;42.994;23.372;2022-09-06T04:56:17;97028.13;;;12.47;100.00
10796;BME280;5450;42.994;23.372;2022-09-06T04:58:45;97045.75;;;12.54;100.00
10796;BME280;5450;42.994;23.372;2022-09-06T05:01:13;97041.97;;;12.49;100.00
10796;BME280;5450;42.994;23.372;2022-09-06T05:03:40;97021.63;;;12.17;100.00
10796;BME280;5450;42.994;23.372;2022-09-06T05:06:11;97051.03;;;12.54;100.00
10796;BME280;5450;42.994;23.372;2022-09-06T05:08:39;97046.91;;;12.52;100.00
10796;BME280;5450;42.994;23.372;2022-09-06T05:11:07;97051.50;;;12.34;100.00
10796;BME280;5450;42.994;23.372;2022-09-06T05:13:35;97040.66;;;12.61;100.00
10796;BME280;5450;42.994;23.372;2022-09-06T05:16:05;97026.47;;;12.46;100.00
10796;BME280;5450;42.994;23.372;2022-09-06T05:18:33;97034.91;;;12.65;100.00
10796;BME280;5450;42.994;23.372;2022-09-06T05:21:01;97000.81;;;12.56;100.00
10796;BME280;5450;42.994;23.372;2022-09-06T05:23:29;97030.81;;;12.87;100.00
10796;BME280;5450;42.994;23.372;2022-09-06T05:25:56;97030.88;;;13.11;100.00
10796;BME280;5450;42.994;23.372;2022-09-06T05:28:23;97020.97;;;13.29;100.00
10796;BME280;5450;42.994;23.372;2022-09-06T05:30:52;97022.91;;;13.43;100.00
10796;BME280;5450;42.994;23.372;2022-09-06T05:33:20;97024.38;;;13.62;100.00
10796;BME280;5450;42.994;23.372;2022-09-06T05:35:48;97014.63;;;13.71;100.00
10796;BME280;5450;42.994;23.372;2022-09-06T05:38:15;97020.84;;;13.86;100.00
10796;BME280;5450;42.994;23.372;2022-09-06T05:40:44;97023.16;;;13.81;100.00
10796;BME280;5450;42.994;23.372;2022-09-06T05:43:11;97012.84;;;14.02;100.00
10796;BME280;5450;42.994;23.372;2022-09-06T05:45:38;97012.16;;;14.08;100.00
10796;BME280;5450;42.994;23.372;2022-09-06T05:48:06;97014.44;;;14.19;100.00
10796;BME280;5450;42.994;23.372;2022-09-06T05:50:33;97031.09;;;14.35;100.00
10796;BME280;5450;42.994;23.372;2022-09-06T05:53:00;96994.88;;;14.36;100.00
10796;BME280;5450;42.994;23.372;2022-09-06T05:55:27;96928.00;;;13.97;100.00
10796;BME280;5450;42.994;23.372;2022-09-06T05:57:56;97011.22;;;14.70;100.00
10796;BME280;5450;42.994;23.372;2022-09-06T06:00:23;96934.03;;;14.44;100.00
10796;BME280;5450;42.994;23.372;2022-09-06T06:02:49;96991.28;;;14.82;100.00
10796;BME280;5450;42.994;23.372;2022-09-06T06:05:16;96996.59;;;14.97;100.00
10796;BME280;5450;42.994;23.372;2022-09-06T06:07:43;96997.34;;;15.05;100.00
10796;BME280;5450;42.994;23.372;2022-09-06T06:10:10;97001.69;;;15.21;100.00
10796;BME280;5450;42.994;23.372;2022-09-06T06:12:37;96995.25;;;15.38;100.00
10796;BME280;5450;42.994;23.372;2022-09-06T06:15:07;96979.03;;;15.56;100.00
10796;BME280;5450;42.994;23.372;2022-09-06T06:17:34;96986.56;;;15.67;100.00
10796;BME280;5450;42.994;23.372;2022-09-06T06:20:02;96985.56;;;15.82;100.00
10796;BME280;5450;42.994;23.372;2022-09-06T06:22:29;96931.28;;;15.49;100.00
10796;BME280;5450;42.994;23.372;2022-09-06T06:24:56;96985.44;;;16.05;100.00
10796;BME280;5450;42.994;23.372;2022-09-06T06:27:23;96979.94;;;16.21;100.00
10796;BME280;5450;42.994;23.372;2022-09-06T06:29:50;96973.75;;;16.35;100.00
10796;BME280;5450;42.994;23.372;2022-09-06T06:32:18;96974.22;;;16.53;100.00
10796;BME280;5450;42.994;23.372;2022-09-06T06:34:45;96973.09;;;16.62;100.00
10796;BME280;5450;42.994;23.372;2022-09-06T06:37:12;96971.25;;;16.84;100.00
10796;BME280;5450;42.994;23.372;2022-09-06T06:39:40;96982.81;;;16.98;100.00
10796;BME280;5450;42.994;23.372;2022-09-06T06:42:07;96970.91;;;17.15;100.00
10796;BME280;5450;42.994;23.372;2022-09-06T06:44:35;96942.09;;;17.12;100.00
10796;BME280;5450;42.994;23.372;2022-09-06T06:47:02;96976.25;;;17.42;100.00
10796;BME280;5450;42.994;23.372;2022-09-06T06:49:30;96971.78;;;17.50;100.00
10796;BME280;5450;42.994;23.372;2022-09-06T06:51:57;96960.47;;;17.62;100.00
10796;BME280;5450;42.994;23.372;2022-09-06T06:54:24;96967.88;;;17.73;100.00
10796;BME280;5450;42.994;23.372;2022-09-06T06:56:51;96956.06;;;17.82;100.00
10796;BME280;5450;42.994;23.372;2022-09-06T06:59:18;96969.69;;;18.07;100.00
10796;BME280;5450;42.994;23.372;2022-09-06T07:01:46;96959.09;;;18.20;100.00
10796;BME280;5450;42.994;23.372;2022-09-06T07:04:14;96960.38;;;18.31;100.00
10796;BME280;5450;42.994;23.372;2022-09-06T07:06:47;96957.13;;;18.42;100.00
10796;BME280;5450;42.994;23.372;2022-09-06T07:09:15;96958.88;;;18.62;100.00
10796;BME280;5450;42.994;23.372;2022-09-06T07:11:43;96970.38;;;18.89;100.00
10796;BME280;5450;42.994;23.372;2022-09-06T07:14:17;96979.00;;;19.17;100.00
10796;BME280;5450;42.994;23.372;2022-09-06T07:16:47;96902.78;;;19.10;100.00
10796;BME280;5450;42.994;23.372;2022-09-06T07:19:33;96944.59;;;19.35;100.00
10796;BME280;5450;42.994;23.372;2022-09-06T07:32:27;96880.47;;;19.94;100.00
10796;BME280;5450;42.994;23.372;2022-09-06T07:35:14;96925.78;;;20.52;100.00
10796;BME280;5450;42.994;23.372;2022-09-06T07:37:58;96881.56;;;20.31;100.00
10796;BME280;5450;42.994;23.372;2022-09-06T08:49:10;96757.78;;;24.76;68.33
10796;BME280;5450;42.994;23.372;2022-09-06T08:51:54;96891.19;;;25.66;68.90
10796;BME280;5450;42.994;23.372;2022-09-06T08:58:07;96723.88;;;24.92;67.59
10796;BME280;5450;42.994;23.372;2022-09-06T09:01:03;96832.47;;;25.63;71.91
10796;BME280;5450;42.994;23.372;2022-09-06T09:03:35;96862.59;;;25.60;70.28
10796;BME280;5450;42.994;23.372;2022-09-06T09:06:05;96730.94;;;24.98;70.18
10796;BME280;5450;42.994;23.372;2022-09-06T09:08:44;96777.22;;;25.38;68.28
10796;BME280;5450;42.994;23.372;2022-09-06T09:14:34;96890.91;;;25.29;69.35
10796;BME280;5450;42.994;23.372;2022-09-06T09:20:28;96878.84;;;25.31;74.45
10796;BME280;5450;42.994;23.372;2022-09-06T10:00:12;96817.94;;;24.31;93.43
10796;BME280;5450;42.994;23.372;2022-09-06T10:02:40;96806.53;;;24.24;94.31
10796;BME280;5450;42.994;23.372;2022-09-06T10:05:19;96791.69;;;24.04;95.29
10796;BME280;5450;42.994;23.372;2022-09-06T10:10:52;96757.59;;;23.65;98.98
10796;BME280;5450;42.994;23.372;2022-09-06T10:13:25;96779.72;;;23.84;100.00
10796;BME280;5450;42.994;23.372;2022-09-06T10:15:57;96755.59;;;23.72;100.00
10796;BME280;5450;42.994;23.372;2022-09-06T10:18:33;96678.22;;;23.13;100.00
10796;BME280;5450;42.994;23.372;2022-09-06T10:21:08;96814.31;;;24.08;100.00
10796;BME280;5450;42.994;23.372;2022-09-06T10:23:50;96705.31;;;23.51;100.00
10796;BME280;5450;42.994;23.372;2022-09-06T10:26:33;96806.22;;;24.20;83.54
10796;BME280;5450;42.994;23.372;2022-09-06T10:29:06;96740.66;;;23.76;78.11
10796;BME280;5450;42.994;23.372;2022-09-06T10:35:42;96803.34;;;24.55;72.27
10796;BME280;5450;42.994;23.372;2022-09-06T10:38:33;96804.16;;;24.72;74.73
10796;BME280;5450;42.994;23.372;2022-09-06T10:41:24;96753.84;;;24.67;76.56
10796;BME280;5450;42.994;23.372;2022-09-06T10:44:12;96818.19;;;25.24;70.29
10796;BME280;5450;42.994;23.372;2022-09-06T10:46:43;96674.28;;;24.50;73.67
10796;BME280;5450;42.994;23.372;2022-09-06T10:49:13;96779.00;;;25.49;70.65
10796;BME280;5450;42.994;23.372;2022-09-06T10:51:49;96637.91;;;24.26;74.25
10796;BME280;5450;42.994;23.372;2022-09-06T10:54:21;96798.47;;;25.18;73.10
10796;BME280;5450;42.994;23.372;2022-09-06T10:56:54;96758.25;;;24.90;73.72
10796;BME280;5450;42.994;23.372;2022-09-06T10:59:25;96763.53;;;24.68;76.09
10796;BME280;5450;42.994;23.372;2022-09-06T11:02:01;96794.25;;;24.89;74.23
10796;BME280;5450;42.994;23.372;2022-09-06T11:04:37;96807.53;;;24.79;80.05
10796;BME280;5450;42.994;23.372;2022-09-06T11:07:14;96719.88;;;24.12;79.00
10796;BME280;5450;42.994;23.372;2022-09-06T11:09:48;96790.88;;;24.49;77.95
10796;BME280;5450;42.994;23.372;2022-09-06T11:12:26;96749.88;;;24.08;78.46
10796;BME280;5450;42.994;23.372;2022-09-06T11:14:55;96695.09;;;23.25;77.98
10796;BME280;5450;42.994;23.372;2022-09-06T11:17:30;96824.25;;;24.08;78.47
10796;BME280;5450;42.994;23.372;2022-09-06T11:20:08;96772.16;;;23.81;79.96
10796;BME280;5450;42.994;23.372;2022-09-06T11:23:02;96744.06;;;23.72;81.19
10796;BME280;5450;42.994;23.372;2022-09-06T11:25:50;96803.81;;;23.95;81.28
10796;BME280;5450;42.994;23.372;2022-09-06T11:28:27;96840.16;;;23.86;82.68
10796;BME280;5450;42.994;23.372;2022-09-06T11:31:01;96787.13;;;23.65;82.43
10796;BME280;5450;42.994;23.372;2022-09-06T11:33:30;96743.81;;;23.45;82.66
10796;BME280;5450;42.994;23.372;2022-09-06T11:36:23;96697.25;;;22.88;83.01
10796;BME280;5450;42.994;23.372;2022-09-06T11:39:03;96817.13;;;23.62;82.21
10796;BME280;5450;42.994;23.372;2022-09-06T11:41:33;96805.31;;;23.63;82.25
10796;BME280;5450;42.994;23.372;2022-09-06T11:44:01;96807.69;;;23.60;82.31
10796;BME280;5450;42.994;23.372;2022-09-06T11:47:00;96798.81;;;23.59;78.91
10796;BME280;5450;42.994;23.372;2022-09-06T11:49:38;96756.63;;;23.20;80.49
10796;BME280;5450;42.994;23.372;2022-09-06T12:02:27;96833.09;;;23.57;85.29
10796;BME280;5450;42.994;23.372;2022-09-06T12:08:48;96661.06;;;22.63;87.82
10796;BME280;5450;42.994;23.372;2022-09-06T12:11:47;96715.63;;;23.08;84.86
10796;BME280;5450;42.994;23.372;2022-09-06T12:15:44;96779.72;;;23.44;87.46
10796;BME280;5450;42.994;23.372;2022-09-06T12:45:01;96776.94;;;23.16;91.56
10796;BME280;5450;42.994;23.372;2022-09-06T12:54:18;96758.03;;;23.22;88.48
10796;BME280;5450;42.994;23.372;2022-09-06T13:09:06;96584.88;;;22.35;89.73
10796;BME280;5450;42.994;23.372;2022-09-06T13:33:22;96706.38;;;23.39;87.64
10796;BME280;5450;42.994;23.372;2022-09-06T13:36:21;96748.84;;;23.70;86.58
10796;BME280;5450;42.994;23.372;2022-09-06T13:42:22;96756.28;;;23.79;86.61
10796;BME280;5450;42.994;23.372;2022-09-06T13:52:25;96736.38;;;23.64;88.12
10796;BME280;5450;42.994;23.372;2022-09-06T13:54:56;96685.97;;;23.26;87.30
10796;BME280;5450;42.994;23.372;2022-09-06T13:57:34;96614.78;;;22.79;88.81
10796;BME280;5450;42.994;23.372;2022-09-06T14:00:35;96613.38;;;22.76;86.48
10796;BME280;5450;42.994;23.372;2022-09-06T14:03:05;96739.31;;;23.62;85.48
10796;BME280;5450;42.994;23.372;2022-09-06T14:05:34;96737.22;;;23.64;85.43
10796;BME280;5450;42.994;23.372;2022-09-06T14:08:03;96565.88;;;22.48;87.02
10796;BME280;5450;42.994;23.372;2022-09-06T14:10:34;96654.44;;;23.05;89.56
10796;BME280;5450;42.994;23.372;2022-09-06T14:13:11;96677.66;;;22.88;87.41
10796;BME280;5450;42.994;23.372;2022-09-06T14:15:44;96542.84;;;22.24;85.14
10796;BME280;5450;42.994;23.372;2022-09-06T14:18:16;96702.06;;;23.26;87.98
10796;BME280;5450;42.994;23.372;2022-09-06T14:20:54;96719.75;;;23.50;87.38
10796;BME280;5450;42.994;23.372;2022-09-06T14:23:39;96675.81;;;23.00;87.41
10796;BME280;5450;42.994;23.372;2022-09-06T14:26:13;96742.66;;;23.41;81.66
10796;BME280;5450;42.994;23.372;2022-09-06T14:28:45;96638.09;;;22.67;82.96
10796;BME280;5450;42.994;23.372;2022-09-06T14:31:20;96649.91;;;23.05;80.89
10796;BME280;5450;42.994;23.372;2022-09-06T14:33:52;96725.75;;;23.41;83.95
10796;BME280;5450;42.994;23.372;2022-09-06T14:36:28;96651.19;;;23.03;84.39
10796;BME280;5450;42.994;23.372;2022-09-06T14:39:03;96652.91;;;23.09;84.35
10796;BME280;5450;42.994;23.372;2022-09-06T14:42:20;96581.38;;;22.46;82.80
10796;BME280;5450;42.994;23.372;2022-09-06T14:45:01;96672.50;;;22.98;81.89
10796;BME280;5450;42.994;23.372;2022-09-06T14:47:28;96735.50;;;23.47;81.08
10796;BME280;5450;42.994;23.372;2022-09-06T14:50:14;96634.72;;;22.71;88.79
10796;BME280;5450;42.994;23.372;2022-09-06T14:56:14;96666.63;;;22.84;83.22
10796;BME280;5450;42.994;23.372;2022-09-06T14:58:42;96555.00;;;22.15;86.18
10796;BME280;5450;42.994;23.372;2022-09-06T15:01:16;96550.56;;;22.09;86.60
10796;BME280;5450;42.994;23.372;2022-09-06T15:03:47;96695.13;;;23.02;85.88
10796;BME280;5450;42.994;23.372;2022-09-06T15:06:18;96735.91;;;23.04;87.62
10796;BME280;5450;42.994;23.372;2022-09-06T15:11:33;96538.22;;;22.08;83.92
10796;BME280;5450;42.994;23.372;2022-09-06T15:14:07;96718.00;;;22.93;86.92
10796;BME280;5450;42.994;23.372;2022-09-06T15:17:01;96700.13;;;22.98;78.88
10796;BME280;5450;42.994;23.372;2022-09-06T15:19:34;96611.56;;;22.30;80.85
10796;BME280;5450;42.994;23.372;2022-09-06T15:25:48;96613.75;;;22.10;89.50
10796;BME280;5450;42.994;23.372;2022-09-06T15:28:32;96575.59;;;21.62;92.30
10796;BME280;5450;42.994;23.372;2022-09-06T15:31:00;96596.63;;;21.88;88.26
10796;BME280;5450;42.994;23.372;2022-09-06T15:33:30;96755.47;;;22.58;89.06
10796;BME280;5450;42.994;23.372;2022-09-06T15:35:59;96728.91;;;22.56;90.59
10796;BME280;5450;42.994;23.372;2022-09-06T15:38:33;96626.28;;;21.86;95.48
10796;BME280;5450;42.994;23.372;2022-09-06T15:44:50;96677.84;;;22.05;92.00
10796;BME280;5450;42.994;23.372;2022-09-06T15:47:19;96586.75;;;21.47;91.64
10796;BME280;5450;42.994;23.372;2022-09-06T15:49:47;96597.38;;;21.36;92.77
10796;BME280;5450;42.994;23.372;2022-09-06T15:52:23;96647.88;;;21.44;92.98
10796;BME280;5450;42.994;23.372;2022-09-06T15:54:56;96645.72;;;21.64;94.00
10796;BME280;5450;42.994;23.372;2022-09-06T15:58:15;96715.06;;;21.95;95.47
10796;BME280;5450;42.994;23.372;2022-09-06T16:01:07;96703.50;;;21.83;97.23
10796;BME280;5450;42.994;23.372;2022-09-06T16:06:36;96660.94;;;21.52;98.76
10796;BME280;5450;42.994;23.372;2022-09-06T16:09:36;96700.53;;;21.73;98.17
10796;BME280;5450;42.994;23.372;2022-09-06T16:12:08;96668.59;;;21.48;98.21
10796;BME280;5450;42.994;23.372;2022-09-06T16:14:37;96618.28;;;21.27;98.82
10796;BME280;5450;42.994;23.372;2022-09-06T16:17:27;96717.16;;;21.75;100.00
10796;BME280;5450;42.994;23.372;2022-09-06T16:19:57;96537.41;;;20.72;100.00
10796;BME280;5450;42.994;23.372;2022-09-06T16:22:27;96558.38;;;20.69;100.00
10796;BME280;5450;42.994;23.372;2022-09-06T16:25:45;96703.88;;;21.68;100.00
10796;BME280;5450;42.994;23.372;2022-09-06T16:28:14;96690.66;;;21.44;100.00
10796;BME280;5450;42.994;23.372;2022-09-06T16:30:41;96621.94;;;20.96;100.00
10796;BME280;5450;42.994;23.372;2022-09-06T16:47:48;96694.78;;;20.24;100.00
10796;BME280;5450;42.994;23.372;2022-09-06T16:50:20;96682.22;;;20.00;100.00
10796;BME280;5450;42.994;23.372;2022-09-06T16:52:49;96650.13;;;19.57;100.00
10796;BME280;5450;42.994;23.372;2022-09-06T17:05:37;96698.19;;;19.44;100.00
10796;BME280;5450;42.994;23.372;2022-09-06T17:08:05;96751.81;;;19.61;100.00
10796;BME280;5450;42.994;23.372;2022-09-06T17:10:59;96729.78;;;19.34;100.00
10796;BME280;5450;42.994;23.372;2022-09-06T17:13:30;96730.63;;;19.15;100.00
10796;BME280;5450;42.994;23.372;2022-09-06T17:16:02;96766.28;;;19.27;100.00
10796;BME280;5450;42.994;23.372;2022-09-06T17:18:47;96758.25;;;19.40;100.00
10796;BME280;5450;42.994;23.372;2022-09-06T17:24:43;96760.13;;;19.20;100.00
10796;BME280;5450;42.994;23.372;2022-09-06T17:44:39;96713.16;;;18.75;100.00
10796;BME280;5450;42.994;23.372;2022-09-06T17:47:39;96767.94;;;19.15;100.00
10796;BME280;5450;42.994;23.372;2022-09-06T17:50:21;96729.16;;;18.49;100.00
10796;BME280;5450;42.994;23.372;2022-09-06T17:59:27;96690.22;;;17.89;100.00
10796;BME280;5450;42.994;23.372;2022-09-06T18:05:51;96804.22;;;18.31;100.00
10796;BME280;5450;42.994;23.372;2022-09-06T18:12:24;96812.78;;;18.00;100.00
10796;BME280;5450;42.994;23.372;2022-09-06T18:18:28;96813.78;;;17.86;100.00
10796;BME280;5450;42.994;23.372;2022-09-06T19:40:57;96830.81;;;16.61;100.00
10796;BME280;5450;42.994;23.372;2022-09-06T19:51:09;96829.59;;;16.64;100.00
10796;BME280;5450;42.994;23.372;2022-09-06T19:54:18;96823.88;;;16.88;100.00
10796;BME280;5450;42.994;23.372;2022-09-06T20:09:05;96826.75;;;16.65;100.00
10796;BME280;5450;42.994;23.372;2022-09-06T20:19:45;96837.44;;;17.00;100.00
10796;BME280;5450;42.994;23.372;2022-09-06T20:29:36;96843.44;;;16.38;100.00
10796;BME280;5450;42.994;23.372;2022-09-06T21:11:09;96858.19;;;16.05;100.00